Terminal Aerodrome Forecast
Issued by NWS

Home | Current Version | Previous Version | Text Only | Print | Product List | Glossary On
Versions: 1 2 3 4 5 6 7 8 9 10 11 12
000
FTUS44 KTSA 300500
TAFMLC
TAF
KMLC 300520Z 3006/3106 12003KT P6SM BKN150
     FM301200 11002KT P6SM -RA OVC100
      TEMPO 3012/3016 3SM -RA BKN050
     FM301600 18006KT P6SM -RA BKN050
      TEMPO 3016/3020 3SM -RA OVC025
     FM302000 09008KT 5SM -RA BR BKN025
      TEMPO 3020/3024 2SM -TSRA BR BKN025CB
     FM310000 09008KT 4SM -RA BR BKN025=

USA.gov is the U.S. government's official web portal to all federal, state and local government web resources and services.